createdAt,value
2024-01-21T00:00:59.767Z,102157.69
2024-01-21T00:03:31.971Z,102157.56
2024-01-21T00:06:04.460Z,102147.69
2024-01-21T00:08:36.456Z,102145.88
2024-01-21T00:11:09.114Z,102146.78
2024-01-21T00:13:41.131Z,102147.69
2024-01-21T00:16:13.182Z,102133.31
2024-01-21T00:18:45.391Z,102125.44
2024-01-21T00:21:17.486Z,102118.44
2024-01-21T00:23:49.572Z,102116.22
2024-01-21T00:26:21.580Z,102113.72
2024-01-21T00:28:53.499Z,102112.97
2024-01-21T00:31:25.578Z,102109.63
2024-01-21T00:33:57.646Z,102104.16
2024-01-21T00:36:29.674Z,102111.03
2024-01-21T00:39:01.731Z,102097.94
2024-01-21T00:41:33.798Z,102091.06
2024-01-21T00:44:06.020Z,102079.09
2024-01-21T00:46:40.989Z,102087.94
2024-01-21T00:49:13.077Z,102091.28
2024-01-21T00:51:45.062Z,102106.06
2024-01-21T00:54:17.012Z,102088.84
2024-01-21T00:56:49.378Z,102095.06
2024-01-21T00:59:21.420Z,102092.63
2024-01-21T01:01:53.406Z,102095.34
2024-01-21T01:04:25.403Z,102093.53
2024-01-21T01:06:57.856Z,102084.97
2024-01-21T01:09:29.866Z,102078.13
2024-01-21T01:12:01.785Z,102070.25
2024-01-21T01:14:33.778Z,102064.91
2024-01-21T01:17:05.730Z,102059.88
2024-01-21T01:19:37.812Z,102058.81
2024-01-21T01:22:11.102Z,102055.03
2024-01-21T01:24:43.197Z,102044.25
2024-01-21T01:27:15.203Z,102028.47
2024-01-21T01:29:47.164Z,102025.75
2024-01-21T01:32:19.174Z,102015.72
2024-01-21T01:34:53.609Z,102005.69
2024-01-21T01:37:25.590Z,102006.28
2024-01-21T01:39:57.930Z,102012.13
2024-01-21T01:42:30.048Z,102004.72
2024-01-21T01:45:02.192Z,101997.06
2024-01-21T01:47:34.832Z,101987.63
2024-01-21T01:50:07.485Z,101991.78
2024-01-21T01:52:39.538Z,101980.53
2024-01-21T01:55:12.113Z,101977.94
2024-01-21T01:57:47.617Z,101972.88
2024-01-21T02:00:19.786Z,101968.72
2024-01-21T02:02:53.838Z,101983.59
2024-01-21T02:05:25.888Z,101971.69
2024-01-21T02:07:57.949Z,101970.94
2024-01-21T02:10:31.038Z,101964.72
2024-01-21T02:13:03.041Z,101953.47
2024-01-21T02:15:35.137Z,101948.13
2024-01-21T02:18:07.437Z,101941.91
2024-01-21T02:20:39.505Z,101950.31
2024-01-21T02:23:12.062Z,101936.97
2024-01-21T02:25:43.993Z,101928.94
2024-01-21T02:28:15.979Z,101923.00
2024-01-21T02:30:48.008Z,101923.75
2024-01-21T02:33:20.069Z,101920.41
2024-01-21T02:35:52.105Z,101907.88
2024-01-21T02:38:24.113Z,101897.50
2024-01-21T02:40:56.087Z,101896.59
2024-01-21T02:43:28.003Z,101891.44
2024-01-21T02:45:59.986Z,101882.00
2024-01-21T02:48:32.048Z,101882.91
2024-01-21T02:51:04.536Z,101877.88
2024-01-21T02:53:36.448Z,101872.06
2024-01-21T02:56:08.827Z,101860.13
2024-01-21T02:58:42.695Z,101872.06
2024-01-21T03:01:14.775Z,101876.47
2024-01-21T03:03:47.281Z,101870.13
2024-01-21T03:06:19.507Z,101883.97
2024-01-21T03:08:51.527Z,101875.59
2024-01-21T03:11:24.857Z,101872.63
2024-01-21T03:13:57.436Z,101865.91
2024-01-21T03:16:29.374Z,101860.34
2024-01-21T03:19:01.411Z,101842.09
2024-01-21T03:21:33.510Z,101850.25
2024-01-21T03:24:05.846Z,101838.06
2024-01-21T03:26:37.861Z,101841.59
2024-01-21T03:29:09.781Z,101847.94
2024-01-21T03:31:41.738Z,101854.16
2024-01-21T03:34:13.867Z,101863.63
2024-01-21T03:36:45.867Z,101854.78
2024-01-21T03:39:17.842Z,101852.69
2024-01-21T03:41:50.092Z,101844.81
2024-01-21T03:44:22.032Z,101838.47
2024-01-21T03:46:54.015Z,101839.63
2024-01-21T03:49:26.092Z,101837.16
2024-01-21T03:51:58.522Z,101840.94
2024-01-21T03:54:30.572Z,101843.66
2024-01-21T03:57:02.466Z,101837.72
2024-01-21T03:59:34.467Z,101834.06
2024-01-21T04:02:06.417Z,101817.53
2024-01-21T04:04:38.450Z,101802.09
2024-01-21T04:07:10.507Z,101806.41
2024-01-21T04:09:42.553Z,101798.50
2024-01-21T04:12:14.730Z,101789.03
2024-01-21T04:14:46.687Z,101793.47
2024-01-21T04:17:20.317Z,101786.72
2024-01-21T04:19:52.375Z,101772.09
2024-01-21T04:22:24.311Z,101779.47
2024-01-21T04:24:56.799Z,101793.72
2024-01-21T04:27:29.037Z,101792.03
2024-01-21T04:30:01.061Z,101788.53
2024-01-21T04:32:33.091Z,101797.84
2024-01-21T04:35:05.952Z,101791.13
2024-01-21T04:37:37.881Z,101787.88
2024-01-21T04:40:10.956Z,101765.50
2024-01-21T04:42:42.980Z,101756.31
2024-01-21T04:45:17.772Z,101741.94
2024-01-21T04:47:57.646Z,101731.16
2024-01-21T04:50:29.611Z,101723.56
2024-01-21T04:53:01.520Z,101716.03
2024-01-21T04:55:33.478Z,101701.75
2024-01-21T04:58:05.387Z,101693.22
2024-01-21T05:00:37.368Z,101681.03
2024-01-21T05:03:10.125Z,101682.59
2024-01-21T05:05:42.263Z,101677.81
2024-01-21T05:08:14.263Z,101677.91
2024-01-21T05:10:46.173Z,101672.63
2024-01-21T05:13:19.203Z,101683.88
2024-01-21T05:15:51.249Z,101684.88
2024-01-21T05:18:24.796Z,101683.31
2024-01-21T05:20:56.830Z,101684.22
2024-01-21T05:23:28.838Z,101699.63
2024-01-21T05:26:01.303Z,101715.28
2024-01-21T05:28:33.239Z,101704.91
2024-01-21T05:31:05.126Z,101694.69
2024-01-21T05:33:37.146Z,101687.94
2024-01-21T05:36:10.925Z,101688.19
2024-01-21T05:38:43.053Z,101689.09
2024-01-21T05:41:18.041Z,101676.03
2024-01-21T05:43:50.240Z,101698.78
2024-01-21T05:46:22.424Z,101695.44
2024-01-21T05:48:54.492Z,101681.69
2024-01-21T05:51:26.539Z,101685.19
2024-01-21T05:53:58.820Z,101681.69
2024-01-21T05:56:30.794Z,101686.88
2024-01-21T05:59:03.343Z,101689.31
2024-01-21T06:01:35.555Z,101692.06
2024-01-21T06:04:07.642Z,101686.88
2024-01-21T06:06:41.844Z,101692.97
2024-01-21T06:09:14.083Z,101680.78
2024-01-21T06:11:46.110Z,101690.25
2024-01-21T06:14:18.125Z,101680.78
2024-01-21T06:16:50.059Z,101673.16
2024-01-21T06:19:22.211Z,101681.03
2024-01-21T06:21:54.270Z,101689.84
2024-01-21T06:24:44.581Z,101693.06
2024-01-21T06:27:16.576Z,101695.91
2024-01-21T06:29:48.606Z,101704.75
2024-01-21T06:32:20.620Z,101703.16
2024-01-21T06:34:52.671Z,101689.28
2024-01-21T06:37:24.790Z,101705.91
2024-01-21T06:40:02.807Z,101712.00
2024-01-21T06:42:38.583Z,101700.72
2024-01-21T06:45:14.130Z,101696.44
2024-01-21T06:47:46.376Z,101699.91
2024-01-21T06:50:18.646Z,101708.84
2024-01-21T06:52:50.600Z,101707.16
2024-01-21T06:55:22.599Z,101694.63
2024-01-21T06:57:54.751Z,101708.97
2024-01-21T07:00:26.858Z,101712.47
2024-01-21T07:02:59.316Z,101705.06
2024-01-21T07:05:31.416Z,101721.78
2024-01-21T07:08:03.976Z,101707.91
2024-01-21T07:10:35.916Z,101684.56
2024-01-21T07:13:07.963Z,101690.91
2024-01-21T07:15:40.889Z,101652.00
2024-01-21T07:18:12.990Z,101650.28
2024-01-21T07:20:45.033Z,101668.59
2024-01-21T07:23:17.093Z,101651.44
2024-01-21T07:25:49.240Z,101651.44
2024-01-21T07:28:21.191Z,101646.81
2024-01-21T07:30:53.203Z,101647.00
2024-01-21T07:33:25.268Z,101653.03
2024-01-21T07:35:59.259Z,101644.00
2024-01-21T07:38:31.676Z,101629.66
2024-01-21T07:41:04.249Z,101650.06
2024-01-21T07:43:36.241Z,101642.41
2024-01-21T07:46:08.405Z,101646.00
2024-01-21T07:48:40.473Z,101642.66
2024-01-21T07:51:12.566Z,101660.66
2024-01-21T07:53:44.667Z,101665.75
2024-01-21T07:56:16.612Z,101660.66
2024-01-21T07:58:48.739Z,101679.63
2024-01-21T08:01:23.110Z,101682.47
2024-01-21T08:03:55.458Z,101671.94
2024-01-21T08:06:27.561Z,101699.84
2024-01-21T08:08:59.559Z,101708.50
2024-01-21T08:11:31.507Z,101735.25
2024-01-21T08:14:03.523Z,101744.81
2024-01-21T08:16:35.529Z,101737.16
2024-01-21T08:19:07.529Z,101745.72
2024-01-21T08:21:39.594Z,101750.50
2024-01-21T08:24:11.654Z,101751.66
2024-01-21T08:26:43.839Z,101762.53
2024-01-21T08:29:15.973Z,101761.09
2024-01-21T08:31:48.445Z,101761.31
2024-01-21T08:34:20.540Z,101768.44
2024-01-21T08:36:52.734Z,101761.47
2024-01-21T08:39:25.317Z,101739.56
2024-01-21T08:41:59.886Z,101735.75
2024-01-21T08:44:32.305Z,101726.25
2024-01-21T08:47:04.633Z,101726.53
2024-01-21T08:49:36.820Z,101734.53
2024-01-21T08:52:09.048Z,101735.56
2024-01-21T08:54:41.103Z,101738.41
2024-01-21T08:57:13.229Z,101760.19
2024-01-21T08:59:45.459Z,101758.84
2024-01-21T09:02:17.501Z,101744.56
2024-01-21T09:04:49.541Z,101773.13
2024-01-21T09:07:21.613Z,101753.38
2024-01-21T09:09:53.741Z,101770.63
2024-01-21T09:12:25.801Z,101755.50
2024-01-21T09:14:58.067Z,101756.41
2024-01-21T09:17:30.043Z,101759.09
2024-01-21T09:20:02.091Z,101753.00
2024-01-21T09:22:34.186Z,101758.31
2024-01-21T09:25:06.854Z,101774.03
2024-01-21T09:27:39.092Z,101787.09
2024-01-21T09:30:11.960Z,101796.59
2024-01-21T09:32:44.043Z,101775.19
2024-01-21T09:35:16.471Z,101785.81
2024-01-21T09:37:48.475Z,101787.34
2024-01-21T09:40:20.651Z,101792.06
2024-01-21T09:42:52.758Z,101804.50
2024-01-21T09:45:26.978Z,101793.88
2024-01-21T09:48:01.438Z,101817.19
2024-01-21T09:50:35.968Z,101804.22
2024-01-21T09:53:07.951Z,101805.91
2024-01-21T09:55:39.998Z,101801.72
2024-01-21T09:58:17.814Z,101798.72
2024-01-21T10:00:51.232Z,101797.97
2024-01-21T10:03:23.206Z,101804.97
2024-01-21T10:05:55.240Z,101821.72
2024-01-21T10:08:29.204Z,101800.81
2024-01-21T10:11:04.210Z,101809.88
2024-01-21T10:13:39.757Z,101798.72
2024-01-21T10:16:13.479Z,101808.19
2024-01-21T10:18:49.419Z,101804.69
2024-01-21T10:21:22.011Z,101801.06
2024-01-21T10:23:53.976Z,101797.66
2024-01-21T10:26:26.018Z,101786.28
2024-01-21T10:28:57.946Z,101786.94
2024-01-21T10:31:29.982Z,101790.03
2024-01-21T10:34:04.894Z,101779.50
2024-01-21T10:36:37.232Z,101773.75
2024-01-21T10:39:10.901Z,101764.66
2024-01-21T10:41:44.964Z,101760.63
2024-01-21T10:44:17.882Z,101768.75
2024-01-21T10:46:52.332Z,101745.91
2024-01-21T10:49:24.425Z,101745.88
2024-01-21T10:51:56.459Z,101750.72
2024-01-21T10:54:32.229Z,101735.13
2024-01-21T10:57:05.796Z,101736.63
2024-01-21T10:59:40.153Z,101727.50
2024-01-21T11:02:13.430Z,101726.13
2024-01-21T11:04:45.500Z,101732.38
2024-01-21T11:07:19.661Z,101725.72
2024-01-21T11:09:55.322Z,101730.25
2024-01-21T11:12:30.407Z,101724.16
2024-01-21T11:15:28.610Z,101729.13
2024-01-21T11:18:23.887Z,101718.53
2024-01-21T11:21:03.142Z,101731.75
2024-01-21T11:23:35.344Z,101730.66
2024-01-21T11:26:07.303Z,101747.38
2024-01-21T11:28:39.979Z,101758.91
2024-01-21T11:31:12.000Z,101758.78
2024-01-21T11:33:44.204Z,101754.63
2024-01-21T11:36:19.680Z,101759.00
2024-01-21T11:38:51.948Z,101763.44
2024-01-21T11:41:42.814Z,101752.94
2024-01-21T11:44:19.834Z,101726.94
2024-01-21T11:46:54.917Z,101731.53
2024-01-21T11:49:27.151Z,101735.25
2024-01-21T11:52:07.811Z,101725.88
2024-01-21T11:54:40.931Z,101727.81
2024-01-21T11:57:13.114Z,101741.81
2024-01-21T11:59:45.939Z,101746.34
2024-01-21T12:02:18.484Z,101746.34
2024-01-21T12:04:50.738Z,101741.16
2024-01-21T12:07:23.612Z,101734.56
2024-01-21T12:09:55.919Z,101752.78
2024-01-21T12:12:28.915Z,101734.56
2024-01-21T12:15:03.434Z,101743.41
2024-01-21T12:17:38.300Z,101744.19
2024-01-21T12:20:12.178Z,101749.63
2024-01-21T12:22:46.581Z,101749.84
2024-01-21T12:25:19.223Z,101744.75
2024-01-21T12:27:58.406Z,101750.19
2024-01-21T12:30:30.572Z,101766.78
2024-01-21T12:33:03.541Z,101755.59
2024-01-21T12:35:36.992Z,101756.72
2024-01-21T12:38:09.046Z,101749.00
2024-01-21T12:40:43.968Z,101749.34
2024-01-21T12:43:17.660Z,101736.66
2024-01-21T12:45:49.687Z,101740.19
2024-01-21T12:48:22.176Z,101729.78
2024-01-21T12:50:54.225Z,101715.16
2024-01-21T12:53:26.256Z,101726.56
2024-01-21T12:55:58.384Z,101746.72
2024-01-21T12:58:30.469Z,101749.44
2024-01-21T13:01:02.669Z,101736.63
2024-01-21T13:03:35.865Z,101732.66
2024-01-21T13:06:08.440Z,101733.66
2024-01-21T13:08:42.822Z,101739.19
2024-01-21T13:11:15.911Z,101730.38
2024-01-21T13:13:47.929Z,101735.81
2024-01-21T13:16:20.000Z,101734.13
2024-01-21T13:18:52.029Z,101738.50
2024-01-21T13:21:25.814Z,101733.28
2024-01-21T13:23:57.983Z,101721.31
2024-01-21T13:26:30.008Z,101719.47
2024-01-21T13:29:20.425Z,101725.59
2024-01-21T13:31:52.481Z,101720.19
2024-01-21T13:34:24.557Z,101714.41
2024-01-21T13:36:56.625Z,101716.66
2024-01-21T13:39:28.706Z,101709.06
2024-01-21T13:42:00.983Z,101712.56
2024-01-21T13:44:35.103Z,101712.25
2024-01-21T13:47:07.570Z,101704.75
2024-01-21T13:49:39.648Z,101719.28
2024-01-21T13:52:16.094Z,101722.78
2024-01-21T13:54:48.109Z,101715.06
2024-01-21T13:57:20.055Z,101721.31
2024-01-21T13:59:51.980Z,101720.59
2024-01-21T14:02:23.987Z,101707.44
2024-01-21T14:04:56.083Z,101712.00
2024-01-21T14:07:28.063Z,101714.69
2024-01-21T14:10:00.188Z,101693.84
2024-01-21T14:12:32.335Z,101694.56
2024-01-21T14:15:04.829Z,101697.69
2024-01-21T14:17:37.018Z,101696.88
2024-01-21T14:20:10.347Z,101696.66
2024-01-21T14:22:44.531Z,101706.28
2024-01-21T14:25:25.033Z,101709.03
2024-01-21T14:27:57.120Z,101712.50
2024-01-21T14:30:36.182Z,101719.19
2024-01-21T14:33:08.427Z,101715.81
2024-01-21T14:35:44.284Z,101711.50
2024-01-21T14:38:17.928Z,101714.91
2024-01-21T14:40:51.434Z,101712.63
2024-01-21T14:43:23.499Z,101708.31
2024-01-21T14:45:55.666Z,101702.31
2024-01-21T14:48:28.330Z,101704.22
2024-01-21T14:51:00.396Z,101701.72
2024-01-21T14:53:33.136Z,101702.75
2024-01-21T14:56:05.881Z,101680.88
2024-01-21T14:58:37.886Z,101687.78
2024-01-21T15:01:09.929Z,101669.44
2024-01-21T15:03:44.596Z,101668.44
2024-01-21T15:06:18.009Z,101643.97
2024-01-21T15:08:51.010Z,101630.16
2024-01-21T15:11:25.722Z,101622.22
2024-01-21T15:14:05.621Z,101631.97
2024-01-21T15:16:37.682Z,101644.19
2024-01-21T15:19:09.867Z,101628.56
2024-01-21T15:21:42.310Z,101623.47
2024-01-21T15:24:14.441Z,101613.94
2024-01-21T15:26:46.561Z,101608.81
2024-01-21T15:29:18.546Z,101600.00
2024-01-21T15:31:50.789Z,101614.94
2024-01-21T15:34:23.019Z,101640.09
2024-01-21T15:36:55.072Z,101650.50
2024-01-21T15:39:27.127Z,101678.25
2024-01-21T15:41:59.333Z,101684.97
2024-01-21T15:44:31.318Z,101679.75
2024-01-21T15:47:03.678Z,101678.88
2024-01-21T15:49:37.431Z,101660.41
2024-01-21T15:52:09.631Z,101665.72
2024-01-21T15:54:41.643Z,101653.06
2024-01-21T15:57:13.600Z,101652.38
2024-01-21T15:59:47.570Z,101635.94
2024-01-21T16:02:20.033Z,101649.88
2024-01-21T16:04:51.995Z,101659.00
2024-01-21T16:07:24.011Z,101649.47
2024-01-21T16:09:56.089Z,101651.25
2024-01-21T16:12:29.888Z,101645.13
2024-01-21T16:15:01.887Z,101645.13
2024-01-21T16:17:33.843Z,101623.13
2024-01-21T16:20:07.217Z,101630.34
2024-01-21T16:22:40.462Z,101629.97
2024-01-21T16:25:12.572Z,101636.53
2024-01-21T16:27:44.595Z,101604.50
2024-01-21T16:30:21.832Z,101591.47
2024-01-21T16:32:54.189Z,101593.16
2024-01-21T16:35:26.281Z,101602.47
2024-01-21T16:37:59.545Z,101594.66
2024-01-21T16:40:31.497Z,101585.84
2024-01-21T16:43:03.623Z,101592.84
2024-01-21T16:45:35.705Z,101581.44
2024-01-21T16:48:08.415Z,101586.63
2024-01-21T16:50:42.276Z,101562.78
2024-01-21T16:53:29.679Z,101566.59
2024-01-21T16:56:01.918Z,101580.31
2024-01-21T16:58:33.952Z,101569.16
2024-01-21T17:01:08.259Z,101599.66
2024-01-21T17:03:40.823Z,101590.22
2024-01-21T17:06:12.900Z,101590.34
2024-01-21T17:08:44.960Z,101583.25
2024-01-21T17:11:23.839Z,101574.03
2024-01-21T17:13:56.000Z,101572.13
2024-01-21T17:16:27.973Z,101558.19
2024-01-21T17:19:05.968Z,101568.81
2024-01-21T17:21:37.977Z,101566.22
2024-01-21T17:24:13.627Z,101554.78
2024-01-21T17:26:45.686Z,101562.03
2024-01-21T17:29:17.672Z,101561.06
2024-01-21T17:31:49.659Z,101555.00
2024-01-21T17:34:21.861Z,101568.75
2024-01-21T17:36:55.115Z,101559.91
2024-01-21T17:39:27.178Z,101561.50
2024-01-21T17:41:59.253Z,101556.22
2024-01-21T17:44:31.300Z,101565.03
2024-01-21T17:47:03.388Z,101552.41
2024-01-21T17:49:35.423Z,101554.03
2024-01-21T17:52:07.648Z,101563.81
2024-01-21T17:54:41.333Z,101571.63
2024-01-21T17:57:13.311Z,101569.84
2024-01-21T17:59:45.705Z,101564.72
2024-01-21T18:02:17.666Z,101558.84
2024-01-21T18:04:49.944Z,101529.53
2024-01-21T18:07:24.017Z,101550.78
2024-01-21T18:09:56.016Z,101546.47
2024-01-21T18:12:28.097Z,101542.19
2024-01-21T18:15:00.244Z,101499.91
2024-01-21T18:17:32.599Z,101527.66
2024-01-21T18:20:05.196Z,101517.22
2024-01-21T18:22:37.865Z,101521.72
2024-01-21T18:25:09.952Z,101526.94
2024-01-21T18:27:41.920Z,101514.03
2024-01-21T18:30:14.072Z,101511.53
2024-01-21T18:32:47.323Z,101504.50
2024-01-21T18:35:19.358Z,101489.84
2024-01-21T18:37:51.498Z,101505.69
2024-01-21T18:40:23.520Z,101503.91
2024-01-21T18:42:55.555Z,101490.88
2024-01-21T18:45:27.591Z,101491.75
2024-01-21T18:48:02.543Z,101504.91
2024-01-21T18:50:34.964Z,101495.25
2024-01-21T18:53:06.976Z,101480.66
2024-01-21T18:55:38.917Z,101492.84
2024-01-21T18:58:15.281Z,101485.94
2024-01-21T19:00:53.131Z,101488.47
2024-01-21T19:03:28.107Z,101479.44
2024-01-21T19:06:00.411Z,101498.78
2024-01-21T19:08:32.549Z,101503.09
2024-01-21T19:11:05.830Z,101498.06
2024-01-21T19:13:37.967Z,101487.63
2024-01-21T19:16:12.922Z,101471.13
2024-01-21T19:18:46.806Z,101472.91
2024-01-21T19:21:24.933Z,101470.22
2024-01-21T19:23:56.891Z,101473.09
2024-01-21T19:26:29.018Z,101462.91
2024-01-21T19:29:00.984Z,101462.19
2024-01-21T19:31:37.272Z,101459.78
2024-01-21T19:34:11.367Z,101451.03
2024-01-21T19:36:43.991Z,101441.72
2024-01-21T19:39:15.979Z,101438.31
2024-01-21T19:41:48.541Z,101420.13
2024-01-21T19:44:20.511Z,101424.56
2024-01-21T19:46:54.176Z,101398.38
2024-01-21T19:49:26.914Z,101388.16
2024-01-21T19:52:00.277Z,101384.91
2024-01-21T19:54:37.054Z,101364.06
2024-01-21T19:57:09.155Z,101365.88
2024-01-21T19:59:41.167Z,101343.50
2024-01-21T20:02:15.283Z,101331.38
2024-01-21T20:04:47.317Z,101328.84
2024-01-21T20:07:23.050Z,101333.34
2024-01-21T20:09:55.250Z,101346.47
2024-01-21T20:12:27.364Z,101338.75
2024-01-21T20:14:59.367Z,101340.56
2024-01-21T20:17:32.149Z,101338.13
2024-01-21T20:20:04.588Z,101328.69
2024-01-21T20:22:36.574Z,101320.06
2024-01-21T20:25:09.104Z,101324.72
2024-01-21T20:27:42.571Z,101319.63
2024-01-21T20:30:18.021Z,101309.38
2024-01-21T20:32:50.162Z,101302.69
2024-01-21T20:35:22.666Z,101293.28
2024-01-21T20:37:54.775Z,101291.47
2024-01-21T20:40:26.858Z,101276.78
2024-01-21T20:42:59.566Z,101290.03
2024-01-21T20:45:31.535Z,101321.59
2024-01-21T20:48:05.101Z,101303.50
2024-01-21T20:50:37.960Z,101304.41
2024-01-21T20:53:09.950Z,101294.09
2024-01-21T20:55:41.906Z,101288.13
2024-01-21T20:58:13.947Z,101287.50
2024-01-21T21:00:57.080Z,101284.09
2024-01-21T21:03:37.481Z,101278.88
2024-01-21T21:06:10.256Z,101253.03
2024-01-21T21:08:44.427Z,101237.53
2024-01-21T21:11:17.080Z,101218.56
2024-01-21T21:13:49.723Z,101217.03
2024-01-21T21:16:22.005Z,101211.13
2024-01-21T21:18:55.028Z,101197.28
2024-01-21T21:21:27.348Z,101194.66
2024-01-21T21:24:00.410Z,101178.31
2024-01-21T21:26:32.472Z,101187.31
2024-01-21T21:29:04.453Z,101182.25
2024-01-21T21:31:36.548Z,101176.22
2024-01-21T21:34:08.619Z,101154.59
2024-01-21T21:36:45.139Z,101140.00
2024-01-21T21:39:17.699Z,101144.41
2024-01-21T21:41:50.653Z,101127.91
2024-01-21T21:44:22.748Z,101136.75
2024-01-21T21:46:54.670Z,101170.59
2024-01-21T21:49:28.624Z,101173.47
2024-01-21T21:52:01.222Z,101198.75
2024-01-21T21:54:33.573Z,101161.53
2024-01-21T21:57:06.399Z,101143.44
2024-01-21T21:59:38.445Z,101107.84
2024-01-21T22:02:10.954Z,101099.19
2024-01-21T22:04:43.150Z,101081.63
2024-01-21T22:07:15.173Z,101100.31
2024-01-21T22:09:47.188Z,101087.34
2024-01-21T22:12:19.171Z,101087.41
2024-01-21T22:14:51.229Z,101056.16
2024-01-21T22:17:23.305Z,101035.31
2024-01-21T22:19:55.331Z,101030.28
2024-01-21T22:22:27.423Z,101032.06
2024-01-21T22:24:59.455Z,101037.56
2024-01-21T22:27:32.404Z,100988.53
2024-01-21T22:30:05.161Z,101002.94
2024-01-21T22:32:37.281Z,101019.69
2024-01-21T22:35:09.556Z,101002.38
2024-01-21T22:37:41.539Z,100978.94
2024-01-21T22:40:13.990Z,100980.06
2024-01-21T22:42:46.153Z,100995.94
2024-01-21T22:45:18.639Z,100989.16
2024-01-21T22:47:50.786Z,100977.22
2024-01-21T22:50:23.069Z,100966.81
2024-01-21T22:52:55.050Z,100954.88
2024-01-21T22:55:27.041Z,100931.59
2024-01-21T22:57:59.202Z,100935.28
2024-01-21T23:00:32.184Z,100909.28
2024-01-21T23:03:04.669Z,100913.03
2024-01-21T23:05:36.770Z,100906.81
2024-01-21T23:08:08.881Z,100905.38
2024-01-21T23:10:41.000Z,100929.13
2024-01-21T23:13:12.981Z,100881.28
2024-01-21T23:15:44.974Z,100885.94
2024-01-21T23:18:18.371Z,100851.97
2024-01-21T23:20:50.564Z,100860.84
2024-01-21T23:23:22.651Z,100856.53
2024-01-21T23:25:54.655Z,100877.81
2024-01-21T23:28:26.633Z,100842.97
2024-01-21T23:31:01.346Z,100853.63
2024-01-21T23:33:33.531Z,100879.09
2024-01-21T23:36:06.316Z,100845.16
2024-01-21T23:38:38.288Z,100838.34
2024-01-21T23:41:10.330Z,100851.59
2024-01-21T23:43:42.318Z,100829.97
2024-01-21T23:46:14.350Z,100846.78
2024-01-21T23:48:46.809Z,100840.88
2024-01-21T23:51:19.381Z,100816.56
2024-01-21T23:53:51.321Z,100811.34
2024-01-21T23:56:23.295Z,100792.41
2024-01-21T23:58:55.285Z,100765.44
